Tipton, Missouri
Current Conditions -  °F | °C
As of 10:35 PM on Wednesday 26 Nov 2014 (Local Time) from KVER Reporting Station
Overcast Overcast  
Wind Chill: -5°   Ceiling: 1300
Heat Index:   Visibility: 10mi
Dew Point: -2°   Wind: 14mph
Humidity: 85%   Direction: 310°NW
Pressure: 30.27"   Gusts: 18mph
Location:  38.66°N, 92.78°W
Report Text: KVER 270435Z AUTO 31012G16KT 10SM OVC013 01/M01 A3027 RMK AO2 T00071015
Loading
Personal Weather Stations






























Interactive Weather Map New forecast layout! Learn more

10-Day Weather Forecast

Advertisements
Track Severe Weather on mobile